Ana Sayfa
METAR-TAF:

METAR-TAF

Havaalanları :

Abakan Uluslararası Havalimanı

Abakan, Rusya

Enlem: 53-45N, Boylam: 091-24E, yükseklik: 245 m

Güncel hava durumu gözlemi

Rapor saat 09:30 UTC de 39 dakika önce yapıldı.
Rüzgar değişken yönden 2 kt
Sıcaklık 25°C
Nem 28%
Basınç 1014 hPa
Görüş mesafesi 10 km veya daha fazla
1500 m altında bulut yok ve kümülonimbus yok

METAR: UNAA 240930Z VRB01MPS CAVOK 25/05 Q1014 R02/CLRD65 NOSIG RMK QFE738

Saat: 17:09 (10:09 UTC)

Tahmin

Rapor saat 07:47 UTC de 2 saat ve 22 dakika önce yapıldı.
Ayın 24'si saat 09 UTC'den ayın 25'si saat 09 UTC'ye kadar geçerli Tahmin
Rüzgar güney/güneybatıdan 6 kt ve 16 kt'a kadar ani rüzgarlar
Görüş mesafesi 10 km veya daha fazla
1500 m altında bulut yok ve kümülonimbus yok

TAF: UNAA 240747Z 2409/2509 20003G08MPS CAVOK

4.000'den fazla havaalanı için hava durumu gözlemleri ve tahminleri (METAR ve TAF raporları).

Kullanılabilir istasyonlar harita üzerinde sarı ve kırmızı noktalarla gösterilir.

İstasyonun adını görmek için fareyi noktanın üzerinde gezdirin.

Sonrasında hava gözlem ve tahminlerini görmek için tıklayın.

Haritayı değiştirmek için: yaklaştırmak için siyah artı işaretli yeşil düğmeye ve uzaklaştırmak için de eksi işaretli düğmeye hızla tıklayın; bitişik haritalar için yeşil okları kullanın.


METAR-TAF: